Disclaimer

Please do not use the information listed here in-flight or in-navigation, as they are not provided to us by the airports but are provided by volunteers, so they might be outdated.

Search


Regions


Airport information page

No radio frequency information is available.

Airport informations:
Latitude: 52° 08' 18.66" N
Longitude: 015° 47' 54.80" E
Elevation: 194 feet - 59 meters
Operating hours: Remarks
Operating agency: Civil government, landing fees and diplomatic clearance may be required
Timezone: UTC+1(+2DT) - Last Sunday in March to last Sunday in October
Fuel: N/A

Runway information:
06/24 - 8202 x 197 feet< - >2500 x 60 meters

Recent METARs:
EPZG 160530Z VRB01KT 0600 R24/0175N FZFG NSC M03/M03 Q1035
EPZG 160600Z 05001KT 0250 R24/0175N FZFG NSC M02/M02 Q1035
EPZG 160630Z 02002KT 0500 R24/0100N FZFG NSC M02/M02 Q1036

Airport on the map: